createdAt,value
2022-08-17T00:00:35.007Z,10.80
2022-08-17T00:03:10.369Z,11.57
2022-08-17T00:05:48.762Z,11.20
2022-08-17T00:08:18.108Z,11.63
2022-08-17T00:10:46.072Z,10.97
2022-08-17T00:13:21.523Z,11.83
2022-08-17T00:15:48.744Z,11.37
2022-08-17T00:19:02.128Z,10.83
2022-08-17T00:21:10.474Z,10.93
2022-08-17T00:23:38.682Z,11.10
2022-08-17T00:26:14.323Z,11.87
2022-08-17T00:28:41.341Z,11.57
2022-08-17T00:31:10.067Z,10.97
2022-08-17T00:33:38.270Z,11.80
2022-08-17T00:36:06.257Z,11.37
2022-08-17T00:38:34.761Z,12.37
2022-08-17T00:41:13.049Z,11.50
2022-08-17T00:43:41.656Z,11.83
2022-08-17T00:46:14.581Z,12.37
2022-08-17T00:48:43.165Z,11.93
2022-08-17T00:51:18.634Z,11.83
2022-08-17T00:53:51.406Z,12.27
2022-08-17T00:56:24.846Z,11.83
2022-08-17T00:58:53.897Z,11.67
2022-08-17T01:01:22.136Z,12.17
2022-08-17T01:03:51.937Z,12.57
2022-08-17T01:06:20.559Z,11.27
2022-08-17T01:08:52.181Z,11.10
2022-08-17T01:11:25.433Z,10.93
2022-08-17T01:13:52.493Z,11.77
2022-08-17T01:16:30.246Z,12.50
2022-08-17T01:19:01.057Z,11.43
2022-08-17T01:21:50.292Z,11.47
2022-08-17T01:24:18.015Z,11.07
2022-08-17T01:26:45.961Z,11.23
2022-08-17T01:29:13.608Z,11.63
2022-08-17T01:31:53.973Z,11.40
2022-08-17T01:34:21.715Z,11.10
2022-08-17T01:36:50.026Z,11.50
2022-08-17T01:39:37.472Z,12.00
2022-08-17T01:42:26.021Z,11.37
2022-08-17T01:44:58.050Z,11.73
2022-08-17T01:47:25.032Z,11.30
2022-08-17T01:49:51.932Z,12.83
2022-08-17T01:52:19.717Z,12.40
2022-08-17T01:54:47.958Z,13.03
2022-08-17T01:57:15.249Z,12.50
2022-08-17T01:59:42.981Z,13.13
2022-08-17T02:02:10.340Z,12.37
2022-08-17T02:04:37.411Z,13.13
2022-08-17T02:07:04.488Z,12.60
2022-08-17T02:09:31.657Z,12.93
2022-08-17T02:12:37.991Z,12.90
2022-08-17T02:14:47.977Z,12.90
2022-08-17T02:17:14.893Z,13.90
2022-08-17T02:19:41.984Z,13.87
2022-08-17T02:22:09.274Z,14.07
2022-08-17T02:24:58.322Z,13.50
2022-08-17T02:27:25.393Z,13.97
2022-08-17T02:29:52.370Z,13.70
2022-08-17T02:32:27.254Z,13.57
2022-08-17T02:34:59.413Z,13.50
2022-08-17T02:37:28.367Z,14.07
2022-08-17T02:39:59.639Z,14.70
2022-08-17T02:42:35.595Z,13.30
2022-08-17T02:45:06.066Z,14.47
2022-08-17T02:47:33.766Z,13.60
2022-08-17T02:50:00.772Z,14.30
2022-08-17T02:52:42.443Z,14.20
2022-08-17T02:55:27.052Z,13.77
2022-08-17T02:57:54.395Z,15.20
2022-08-17T03:00:27.025Z,14.70
2022-08-17T03:02:56.491Z,14.43
2022-08-17T03:05:47.519Z,14.37
2022-08-17T03:08:35.248Z,14.97
2022-08-17T03:11:22.139Z,14.27
2022-08-17T03:14:09.654Z,14.27
2022-08-17T03:16:56.558Z,14.60
2022-08-17T03:19:43.609Z,14.33
2022-08-17T03:22:36.828Z,14.33
2022-08-17T03:25:26.550Z,14.90
2022-08-17T03:28:14.556Z,14.97
2022-08-17T03:31:01.776Z,15.03
2022-08-17T03:33:49.272Z,14.43
2022-08-17T03:36:36.298Z,14.17
2022-08-17T03:39:24.078Z,15.27
2022-08-17T03:42:31.119Z,15.13
2022-08-17T03:45:18.226Z,14.43
2022-08-17T03:48:05.254Z,13.93
2022-08-17T03:50:50.922Z,15.40
2022-08-17T03:53:38.404Z,14.13
2022-08-17T03:56:25.858Z,14.03
2022-08-17T03:59:21.218Z,13.47
2022-08-17T04:02:15.232Z,13.17
2022-08-17T04:05:02.652Z,14.47
2022-08-17T04:07:51.172Z,13.70
2022-08-17T04:10:41.268Z,14.27
2022-08-17T04:13:32.125Z,14.33
2022-08-17T04:16:19.237Z,13.37
2022-08-17T04:19:06.133Z,13.87
2022-08-17T04:21:54.083Z,13.47
2022-08-17T04:24:41.045Z,14.10
2022-08-17T04:27:28.193Z,14.03
2022-08-17T04:30:15.267Z,13.60
2022-08-17T04:33:23.194Z,13.47
2022-08-17T04:36:12.819Z,13.47
2022-08-17T04:39:01.658Z,13.77
2022-08-17T04:41:46.957Z,14.27
2022-08-17T04:44:37.586Z,14.13
2022-08-17T04:47:25.111Z,14.27
2022-08-17T04:50:12.269Z,14.60
2022-08-17T04:53:06.328Z,13.40
2022-08-17T04:55:53.333Z,13.97
2022-08-17T04:58:40.862Z,14.13
2022-08-17T05:01:27.926Z,13.80
2022-08-17T05:04:33.392Z,13.43
2022-08-17T05:07:25.402Z,13.37
2022-08-17T05:10:14.125Z,13.60
2022-08-17T05:13:01.346Z,12.97
2022-08-17T05:15:49.091Z,13.50
2022-08-17T05:18:37.355Z,13.20
2022-08-17T05:21:25.552Z,13.53
2022-08-17T05:24:38.374Z,13.13
2022-08-17T05:27:20.818Z,12.70
2022-08-17T05:30:07.884Z,12.87
2022-08-17T05:32:55.253Z,13.07
2022-08-17T05:35:44.320Z,12.60
2022-08-17T05:38:31.486Z,13.47
2022-08-17T05:41:20.566Z,13.00
2022-08-17T05:44:07.613Z,12.40
2022-08-17T05:47:00.360Z,12.10
2022-08-17T05:49:49.022Z,12.63
2022-08-17T05:52:54.429Z,12.97
2022-08-17T05:56:01.774Z,15.17
2022-08-17T05:58:56.589Z,14.27
2022-08-17T06:02:09.596Z,14.47
2022-08-17T06:05:15.377Z,14.80
2022-08-17T06:08:26.109Z,15.10
2022-08-17T06:11:27.051Z,16.00
2022-08-17T06:14:17.713Z,15.10
2022-08-17T06:17:08.774Z,14.90
2022-08-17T06:20:00.585Z,14.20
2022-08-17T06:22:53.353Z,14.63
2022-08-17T06:25:56.534Z,14.80
2022-08-17T06:28:55.602Z,15.33
2022-08-17T06:31:51.128Z,15.03
2022-08-17T06:34:38.565Z,13.00
2022-08-17T06:37:40.106Z,11.27
2022-08-17T06:40:53.238Z,10.23
2022-08-17T06:44:43.739Z,8.47
2022-08-17T06:47:47.021Z,7.80
2022-08-17T06:50:59.580Z,7.80
2022-08-17T06:53:55.569Z,8.00
2022-08-17T06:57:01.553Z,7.20
2022-08-17T07:00:01.206Z,7.57
2022-08-17T07:03:16.161Z,7.40
2022-08-17T07:06:11.822Z,7.77
2022-08-17T07:09:21.210Z,7.73
2022-08-17T07:12:10.794Z,7.63
2022-08-17T07:15:03.232Z,8.00
2022-08-17T07:17:50.504Z,7.70
2022-08-17T07:20:41.856Z,7.73
2022-08-17T07:23:31.539Z,7.57
2022-08-17T07:26:26.468Z,8.00
2022-08-17T07:29:14.844Z,8.40
2022-08-17T07:32:01.812Z,9.03
2022-08-17T07:34:48.868Z,9.30
2022-08-17T07:37:39.572Z,9.57
2022-08-17T07:40:43.429Z,9.80
2022-08-17T07:43:41.529Z,10.53
2022-08-17T07:46:30.132Z,10.67
2022-08-17T07:49:23.350Z,10.30
2022-08-17T07:52:47.508Z,11.87
2022-08-17T07:55:17.693Z,9.80
2022-08-17T07:58:16.077Z,9.97
2022-08-17T08:01:03.555Z,10.93
2022-08-17T08:03:52.415Z,9.93
2022-08-17T08:06:43.781Z,10.90
2022-08-17T08:09:49.330Z,9.80
2022-08-17T08:13:03.188Z,9.50
2022-08-17T08:16:04.361Z,9.67
2022-08-17T08:18:56.768Z,9.27
2022-08-17T08:21:47.019Z,9.50
2022-08-17T08:25:09.310Z,10.10
2022-08-17T08:28:02.134Z,8.90
2022-08-17T08:30:55.060Z,9.03
2022-08-17T08:33:25.366Z,9.10
2022-08-17T08:36:58.125Z,9.60
2022-08-17T08:40:18.741Z,8.00
2022-08-17T08:43:26.647Z,8.70
2022-08-17T08:46:49.995Z,8.10
2022-08-17T08:50:04.407Z,7.50
2022-08-17T08:53:07.399Z,8.27
2022-08-17T08:55:57.592Z,8.73
2022-08-17T08:59:12.453Z,8.03
2022-08-17T09:02:22.188Z,8.50
2022-08-17T09:05:23.024Z,8.77
2022-08-17T09:08:20.603Z,8.73
2022-08-17T09:11:30.609Z,9.30
2022-08-17T09:14:28.297Z,8.40
2022-08-17T09:17:36.949Z,9.47
2022-08-17T09:20:35.925Z,9.23
2022-08-17T09:23:28.991Z,8.53
2022-08-17T09:26:23.087Z,9.23
2022-08-17T09:29:16.893Z,9.50
2022-08-17T09:32:11.793Z,9.73
2022-08-17T09:35:08.281Z,10.37
2022-08-17T09:38:14.757Z,10.00
2022-08-17T09:41:29.638Z,10.17
2022-08-17T09:44:33.980Z,9.93
2022-08-17T09:47:30.016Z,9.73
2022-08-17T09:50:55.447Z,10.30
2022-08-17T09:53:13.665Z,11.00
2022-08-17T09:56:00.083Z,10.07
2022-08-17T09:58:29.125Z,10.47
2022-08-17T10:01:17.363Z,10.70
2022-08-17T10:04:20.350Z,11.37
2022-08-17T10:06:50.349Z,10.77
2022-08-17T10:09:42.795Z,10.90
2022-08-17T10:12:43.194Z,10.63
2022-08-17T10:15:38.490Z,10.87
2022-08-17T10:18:37.902Z,11.07
2022-08-17T10:21:28.953Z,11.60
2022-08-17T10:24:31.681Z,10.23
2022-08-17T10:27:02.136Z,10.87
2022-08-17T10:29:54.790Z,11.80
2022-08-17T10:32:32.440Z,11.10
2022-08-17T10:35:34.204Z,10.90
2022-08-17T10:38:24.574Z,11.90
2022-08-17T10:41:16.264Z,11.00
2022-08-17T10:44:38.353Z,11.43
2022-08-17T10:47:08.156Z,10.90
2022-08-17T10:49:37.362Z,12.03
2022-08-17T10:52:27.480Z,11.03
2022-08-17T10:54:58.096Z,10.83
2022-08-17T10:57:28.290Z,10.30
2022-08-17T10:59:56.697Z,10.60
2022-08-17T11:02:27.548Z,10.53
2022-08-17T11:05:08.910Z,11.03
2022-08-17T11:07:49.762Z,11.13
2022-08-17T11:10:54.933Z,10.53
2022-08-17T11:13:59.278Z,11.03
2022-08-17T11:16:29.393Z,11.63
2022-08-17T11:19:15.322Z,12.53
2022-08-17T11:22:19.775Z,11.53
2022-08-17T11:24:51.421Z,11.60
2022-08-17T11:27:36.046Z,12.40
2022-08-17T11:30:10.960Z,11.03
2022-08-17T11:32:52.996Z,11.60
2022-08-17T11:35:21.870Z,12.33
2022-08-17T11:38:14.021Z,11.90
2022-08-17T11:40:58.714Z,12.13
2022-08-17T11:43:42.978Z,12.53
2022-08-17T11:46:51.899Z,12.77
2022-08-17T11:49:58.166Z,12.77
2022-08-17T11:53:06.477Z,12.10
2022-08-17T11:55:53.535Z,12.00
2022-08-17T11:58:49.742Z,12.10
2022-08-17T12:01:42.845Z,12.53
2022-08-17T12:04:41.954Z,13.30
2022-08-17T12:07:40.673Z,13.57
2022-08-17T12:10:28.313Z,15.30
2022-08-17T12:13:15.737Z,15.50
2022-08-17T12:16:06.499Z,16.93
2022-08-17T12:18:56.061Z,16.20
2022-08-17T12:21:45.869Z,17.57
2022-08-17T12:24:58.612Z,16.00
2022-08-17T12:28:05.469Z,15.13
2022-08-17T12:30:55.428Z,14.33
2022-08-17T12:33:45.094Z,14.37
2022-08-17T12:36:35.266Z,13.70
2022-08-17T12:39:27.453Z,14.30
2022-08-17T12:42:21.629Z,14.17
2022-08-17T12:45:08.594Z,15.30
2022-08-17T12:47:57.378Z,16.37
2022-08-17T12:50:44.464Z,15.73
2022-08-17T12:53:37.918Z,15.13
2022-08-17T12:56:31.416Z,14.30
2022-08-17T12:59:18.406Z,15.40
2022-08-17T13:02:17.854Z,15.87
2022-08-17T13:05:05.297Z,18.00
2022-08-17T13:07:46.596Z,19.00
2022-08-17T13:10:18.809Z,18.63
2022-08-17T13:12:45.874Z,19.47
2022-08-17T13:15:47.009Z,19.53
2022-08-17T13:18:39.120Z,20.67
2022-08-17T13:21:18.220Z,20.13
2022-08-17T13:24:23.175Z,20.00
2022-08-17T13:27:13.060Z,20.13
2022-08-17T13:30:02.361Z,21.60
2022-08-17T13:32:47.309Z,22.50
2022-08-17T13:35:39.818Z,20.87
2022-08-17T13:38:17.139Z,21.03
2022-08-17T13:40:51.955Z,21.70
2022-08-17T13:43:57.390Z,22.00
2022-08-17T13:46:31.199Z,21.93
2022-08-17T13:49:10.249Z,21.43
2022-08-17T13:51:45.697Z,20.87
2022-08-17T13:54:34.394Z,20.77
2022-08-17T13:57:06.665Z,19.93
2022-08-17T13:59:53.326Z,20.97
2022-08-17T14:02:26.027Z,19.67
2022-08-17T14:04:54.741Z,20.30
2022-08-17T14:07:47.778Z,20.17
2022-08-17T14:10:17.588Z,20.40
2022-08-17T14:12:45.404Z,20.57
2022-08-17T14:15:14.820Z,19.77
2022-08-17T14:17:41.900Z,21.37
2022-08-17T14:20:11.833Z,20.17
2022-08-17T14:22:43.507Z,20.23
2022-08-17T14:25:12.365Z,20.00
2022-08-17T14:27:43.580Z,21.00
2022-08-17T14:30:22.812Z,21.30
2022-08-17T14:32:52.007Z,19.77
2022-08-17T14:35:22.501Z,20.90
2022-08-17T14:37:50.827Z,21.27
2022-08-17T14:40:20.934Z,20.77
2022-08-17T14:42:48.235Z,21.00
2022-08-17T14:45:29.919Z,19.90
2022-08-17T14:48:02.000Z,20.73
2022-08-17T14:50:28.948Z,21.50
2022-08-17T14:52:57.905Z,21.03
2022-08-17T14:55:25.251Z,21.33
2022-08-17T14:57:52.646Z,20.97
2022-08-17T15:00:19.838Z,20.63
2022-08-17T15:02:58.605Z,21.00
2022-08-17T15:05:32.496Z,20.43
2022-08-17T15:08:01.543Z,20.73
2022-08-17T15:10:30.731Z,21.60
2022-08-17T15:12:58.311Z,20.00
2022-08-17T15:15:25.633Z,21.10
2022-08-17T15:17:52.616Z,20.40
2022-08-17T15:20:25.458Z,21.13
2022-08-17T15:22:56.218Z,22.23
2022-08-17T15:25:25.801Z,20.87
2022-08-17T15:27:53.760Z,21.90
2022-08-17T15:30:24.552Z,21.60
2022-08-17T15:32:54.230Z,20.97
2022-08-17T15:35:27.868Z,21.97
2022-08-17T15:38:07.840Z,20.97
2022-08-17T15:40:41.427Z,21.73
2022-08-17T15:43:11.659Z,22.23
2022-08-17T15:45:39.731Z,20.93
2022-08-17T15:48:07.029Z,21.63
2022-08-17T15:50:34.005Z,22.10
2022-08-17T15:53:01.967Z,21.37
2022-08-17T15:55:30.543Z,21.37
2022-08-17T15:57:57.759Z,22.47
2022-08-17T16:00:26.040Z,22.27
2022-08-17T16:03:44.642Z,20.77
2022-08-17T16:05:42.113Z,20.63
2022-08-17T16:08:11.084Z,20.90
2022-08-17T16:10:38.617Z,21.07
2022-08-17T16:13:05.991Z,20.90
2022-08-17T16:15:51.134Z,20.97
2022-08-17T16:18:26.769Z,21.20
2022-08-17T16:20:54.958Z,22.07
2022-08-17T16:23:22.485Z,21.30
2022-08-17T16:25:53.823Z,21.40
2022-08-17T16:28:21.897Z,22.83
2022-08-17T16:30:48.861Z,22.47
2022-08-17T16:33:16.890Z,21.63
2022-08-17T16:35:43.998Z,21.53
2022-08-17T16:38:12.509Z,22.37
2022-08-17T16:40:59.473Z,21.67
2022-08-17T16:43:46.333Z,22.03
2022-08-17T16:46:33.349Z,21.13
2022-08-17T16:49:34.442Z,21.27
2022-08-17T16:52:04.821Z,22.07
2022-08-17T16:54:31.925Z,20.87
2022-08-17T16:56:59.198Z,22.13
2022-08-17T16:59:26.539Z,22.33
2022-08-17T17:02:04.898Z,21.67
2022-08-17T17:04:34.991Z,21.80
2022-08-17T17:07:12.122Z,21.73
2022-08-17T17:09:39.249Z,21.03
2022-08-17T17:12:17.977Z,20.90
2022-08-17T17:14:48.025Z,20.93
2022-08-17T17:17:24.668Z,21.30
2022-08-17T17:20:02.917Z,21.87
2022-08-17T17:22:36.030Z,22.10
2022-08-17T17:25:16.870Z,22.27
2022-08-17T17:28:05.477Z,21.73
2022-08-17T17:31:04.864Z,22.03
2022-08-17T17:33:48.972Z,20.63
2022-08-17T17:36:48.297Z,21.50
2022-08-17T17:39:19.662Z,21.23
2022-08-17T17:41:54.326Z,21.97
2022-08-17T17:44:33.234Z,21.37
2022-08-17T17:47:02.137Z,22.33
2022-08-17T17:49:35.595Z,20.10
2022-08-17T17:52:14.438Z,20.83
2022-08-17T17:54:52.586Z,20.63
2022-08-17T17:57:45.400Z,20.80
2022-08-17T18:00:21.981Z,19.83
2022-08-17T18:03:07.766Z,20.67
2022-08-17T18:05:37.403Z,20.50
2022-08-17T18:08:10.722Z,20.03
2022-08-17T18:10:55.235Z,19.67
2022-08-17T18:13:33.078Z,19.63
2022-08-17T18:16:01.138Z,18.83
2022-08-17T18:18:38.187Z,19.23
2022-08-17T18:21:15.961Z,18.90
2022-08-17T18:23:48.578Z,18.70
2022-08-17T18:26:37.700Z,18.60
2022-08-17T18:29:24.897Z,19.87
2022-08-17T18:32:16.891Z,18.90
2022-08-17T18:34:47.912Z,18.70
2022-08-17T18:37:31.989Z,18.80
2022-08-17T18:39:59.228Z,18.60
2022-08-17T18:42:28.867Z,18.17
2022-08-17T18:44:56.465Z,18.83
2022-08-17T18:47:27.109Z,17.80
2022-08-17T18:50:02.296Z,18.93
2022-08-17T18:52:32.666Z,18.50
2022-08-17T18:55:01.704Z,17.80
2022-08-17T18:57:35.958Z,18.37
2022-08-17T19:00:21.197Z,18.03
2022-08-17T19:02:54.948Z,16.73
2022-08-17T19:05:35.970Z,17.40
2022-08-17T19:08:28.446Z,16.80
2022-08-17T19:11:01.433Z,16.87
2022-08-17T19:13:40.061Z,17.20
2022-08-17T19:16:27.805Z,16.03
2022-08-17T19:19:14.525Z,16.33
2022-08-17T19:21:48.210Z,17.20
2022-08-17T19:24:21.402Z,8.07
2022-08-17T19:26:57.615Z,5.83
2022-08-17T19:29:44.211Z,4.20
2022-08-17T19:32:14.146Z,3.77
2022-08-17T19:34:43.026Z,2.50
2022-08-17T19:37:27.356Z,1.60
2022-08-17T19:43:49.084Z,1.20
2022-08-17T19:46:41.285Z,1.20
2022-08-17T19:49:33.497Z,0.80
2022-08-17T19:53:07.383Z,0.93
2022-08-17T19:56:30.684Z,0.87
2022-08-17T19:59:20.557Z,0.63
2022-08-17T20:02:24.058Z,0.80
2022-08-17T20:05:13.593Z,0.60
2022-08-17T20:08:17.265Z,0.70
2022-08-17T20:11:27.294Z,0.63
2022-08-17T20:14:31.735Z,0.47
2022-08-17T20:17:18.627Z,0.50
2022-08-17T20:20:19.543Z,0.50
2022-08-17T20:23:48.610Z,0.33
2022-08-17T20:26:42.182Z,0.30
2022-08-17T20:29:44.121Z,0.30
2022-08-17T20:32:48.114Z,0.27
2022-08-17T20:35:35.006Z,0.40
2022-08-17T20:38:24.215Z,0.30
2022-08-17T20:41:14.101Z,0.20
2022-08-17T20:44:05.808Z,0.40
2022-08-17T20:46:55.398Z,0.40
2022-08-17T20:50:08.597Z,0.20
2022-08-17T20:52:55.690Z,2.40
2022-08-17T20:55:57.997Z,0.30
2022-08-17T20:58:44.936Z,0.40
2022-08-17T21:01:37.655Z,0.40
2022-08-17T21:04:28.310Z,0.30
2022-08-17T21:07:49.164Z,0.47
2022-08-17T21:10:52.831Z,0.43
2022-08-17T21:13:52.172Z,0.30
2022-08-17T21:17:10.544Z,0.30
2022-08-17T21:20:11.932Z,0.20
2022-08-17T21:23:22.345Z,0.30
2022-08-17T21:26:30.667Z,0.50
2022-08-17T21:29:32.015Z,0.40
2022-08-17T21:32:24.449Z,0.40
2022-08-17T21:35:27.124Z,0.50
2022-08-17T21:38:23.625Z,0.50
2022-08-17T21:41:13.198Z,0.40
2022-08-17T21:44:09.042Z,0.40
2022-08-17T21:46:59.510Z,0.40
2022-08-17T21:49:47.505Z,0.47
2022-08-17T21:52:37.350Z,0.33
2022-08-17T21:55:25.126Z,0.40
2022-08-17T21:58:14.832Z,0.30
2022-08-17T22:01:03.001Z,0.40
2022-08-17T22:03:51.318Z,0.50
2022-08-17T22:06:56.685Z,0.60
2022-08-17T22:10:01.564Z,0.50
2022-08-17T22:12:48.616Z,0.50
2022-08-17T22:15:39.878Z,0.40
2022-08-17T22:18:30.415Z,0.40
2022-08-17T22:21:22.634Z,0.40
2022-08-17T22:24:25.807Z,0.30
2022-08-17T22:27:29.453Z,0.30
2022-08-17T22:30:18.771Z,0.33
2022-08-17T22:33:07.398Z,0.40
2022-08-17T22:36:05.174Z,0.40
2022-08-17T22:38:54.856Z,0.30
2022-08-17T22:41:57.690Z,0.27
2022-08-17T22:44:47.225Z,0.20
2022-08-17T22:47:34.307Z,0.20
2022-08-17T22:50:23.481Z,0.20
2022-08-17T22:53:21.642Z,0.30
2022-08-17T22:56:10.013Z,0.30
2022-08-17T22:59:12.187Z,0.20
2022-08-17T23:02:00.233Z,0.20
2022-08-17T23:04:57.605Z,0.10
2022-08-17T23:07:44.607Z,0.30
2022-08-17T23:10:32.985Z,0.27
2022-08-17T23:13:20.546Z,0.20
2022-08-17T23:16:11.087Z,0.10
2022-08-17T23:18:58.241Z,0.10
2022-08-17T23:21:51.753Z,0.50
2022-08-17T23:24:51.581Z,0.20
2022-08-17T23:27:40.282Z,0.20
2022-08-17T23:30:30.073Z,0.30
2022-08-17T23:33:24.722Z,0.20
2022-08-17T23:36:11.727Z,0.20
2022-08-17T23:38:58.700Z,0.10
2022-08-17T23:41:54.735Z,0.20
2022-08-17T23:44:41.982Z,0.10
2022-08-17T23:47:29.771Z,0.20
2022-08-17T23:50:16.816Z,0.23
2022-08-17T23:52:46.690Z,0.10
2022-08-17T23:55:14.609Z,0.20
2022-08-17T23:57:41.617Z,0.10
